METAR Data
IDs: Format: Raw Decoded Include TAF

Data at: 1348 UTC 14 Dec 2019

PAGS 141256Z AUTO 15006KT 10SM -RA OVC032 04/02 A3003 RMK AO2 RAB02 SLP170 P0000 T00390022
PAGS 141156Z AUTO 13004KT 10SM OVC040 04/02 A3003 RMK AO2 RAE00B34E45 SLP169 P0000 60000 70003 T00390022 10044 20039 53007
PAGS 141056Z AUTO 14007KT 10SM -RA BKN050 OVC060 04/02 A3002 RMK AO2 RAB44 SLP166 P0000 T00440022
PAGS 140956Z AUTO 13006KT 10SM SCT039 OVC048 04/02 A3002 RMK AO2 RAB0857E19 SLP164 P0000 T00440022
PAGS 140856Z AUTO 14006KT 10SM FEW033 OVC060 04/02 A3001 RMK AO2 RAE0758B26E54 SLP161 P0000 60000 T00390022 400560039 51009
PAGS 140756Z AUTO 14005KT 10SM -RA BKN050 OVC065 04/02 A3000 RMK AO2 RAB47 SLP159 P0000 T00440022
PAGS 140656Z AUTO 12008KT 10SM BKN040 BKN046 OVC065 04/02 A2999 RMK AO2 SLP156 T00440022
PAGS 140556Z AUTO 14006KT 10SM BKN042 OVC060 04/02 A2998 RMK AO2 SLP152 T00440022 10050 20039 53010
PAGS 140456Z AUTO 13005KT 10SM SCT039 OVC050 04/02 A2997 RMK AO2 SLP149 T00440022
PAGS 140356Z AUTO 14004KT 10SM OVC055 04/02 A2996 RMK AO2 SLP144 T00440017
PAGS 140256Z AUTO 14007KT 10SM BKN045 BKN055 04/02 A2995 RMK AO2 SLP142 T00440017 53006
PAGS 140156Z AUTO 14007KT 10SM SCT050 BKN060 BKN075 04/02 A2994 RMK AO2 SLP137 T00390017
PAGS 140056Z AUTO 13005KT 10SM BKN060 OVC080 04/02 A2994 RMK AO2 SLP137 T00440022
PAGS 132356Z AUTO 15007KT 10SM SCT048 OVC060 05/02 A2993 RMK AO2 SLP136 60003 T00500022 10050 20044 53007
PAGS 132256Z AUTO 15007KT 10SM BKN050 OVC060 05/02 A2992 RMK AO2 SLP132 T00500022
PAGS 132156Z AUTO 14011KT 10SM FEW036 SCT044 OVC060 05/02 A2991 RMK AO2 RAE28 SLP129 P0000 T00500022
PAGS 132056Z AUTO 14007KT 10SM -RA FEW024 BKN044 OVC055 04/02 A2991 RMK AO2 RAB18 SLP129 P0001 60003 T00440022 53002
PAGS 132019Z AUTO 17005KT 10SM -RA BKN029 OVC042 05/02 A2991 RMK AO2 RAB18 P0000
PAGS 132010Z AUTO 16005KT 10SM SCT026 BKN031 OVC048 05/02 A2991 RMK AO2
PAGS 131956Z AUTO 16004KT 10SM BKN026 BKN033 OVC049 04/02 A2991 RMK AO2 RAE51 SLP127 P0002 T00440022
PAGS 131953Z AUTO 16004KT 10SM BKN026 BKN036 OVC049 04/02 A2991 RMK AO2 RAE51 P0002
PAGS 131934Z AUTO 14006KT 10SM -RA SCT026 BKN034 OVC049 05/02 A2991 RMK AO2 P0002
PAGS 131856Z AUTO 15009G17KT 8SM -RA BKN024 BKN030 OVC038 05/02 A2991 RMK AO2 RAB17 SLP127 P0000 T00500022
PAGS 131756Z AUTO 14008KT 10SM OVC048 05/02 A2988 RMK AO2 RAB32E44 SLP118 P0000 60000 T00500022 10050 20039 53009
PAGS 131556Z AUTO 13008KT 10SM FEW042 04/02 A2985 RMK AO2 SLP109 T00440022
PAGS 131456Z AUTO 15009KT 10SM BKN039 BKN050 04/03 A2985 RMK AO2 SLP109 T00440028 53011
PAGS 131356Z AUTO 14012KT 10SM FEW060 05/03 A2984 RMK AO2 SLP104 T00500028
PAGS 131256Z AUTO 13008KT 10SM OVC060 05/03 A2983 RMK AO2 SLP101 T00500028
PAGS 131156Z AUTO 18003KT 10SM SCT014 BKN030 OVC039 05/03 A2982 RMK AO2 SLP098 60003 70004 T00500028 10056 20039 51028
PAGS 131056Z AUTO 15006KT 10SM BKN039 OVC048 05/03 A2979 RMK AO2 SLP089 T00500033
PAGS 130956Z AUTO 10006KT 10SM SCT048 BKN060 BKN075 05/03 A2977 RMK AO2 RAE0857 SLP079 T00500033
PAGS 130856Z AUTO 12009KT 10SM -RA FEW036 BKN046 OVC070 05/03 A2974 RMK AO2 RAB29 SLP070 P0001 60003 T00500033 400610017 51035
PAGS 130756Z AUTO 15005KT 10SM FEW028 BKN035 OVC050 05/03 A2971 RMK AO2 RAB00E55 SLP061 P0001 T00500033
PAGS 130733Z AUTO 17004KT 10SM -RA FEW021 BKN030 OVC039 05/03 A2971 RMK AO2 RAB00 P0001
PAGS 130656Z AUTO 16005KT 10SM BKN025 OVC037 06/03 A2968 RMK AO2 RAE54 SLP049 P0001 T00560033
PAGS 130556Z AUTO 17005KT 10SM -RA OVC027 06/03 A2963 RMK AO2 RAE09B31 SLP034 P0000 60000 T00560033 10061 20033 53023
PAGS 130527Z AUTO 15009KT 10SM BKN029 BKN033 OVC060 06/03 A2962 RMK AO2 RAE09 P0000
PAGS 130456Z AUTO 14009KT 10SM -RA SCT035 BKN043 OVC060 06/03 A2960 RMK AO2 RAB09E26B53 SLP024 P0000 T00560028
PAGS 130356Z AUTO 14006KT 10SM OVC038 06/03 A2958 RMK AO2 SLP016 T00560028
PAGS 130256Z AUTO 14004KT 10SM FEW026 OVC041 05/03 A2957 RMK AO2 RAE01 SLP012 P0000 60000 T00500033 51024
PAGS 130156Z AUTO 00000KT 10SM -RA SCT026 BKN042 OVC050 04/03 A2955 RMK AO2 SLP006 P0000 T00390033